This is the latest recevied weather packets stored in our database for station/object OE3AOG-10. If no packets are shown the sender has not sent any weather packets the latest 10 day(s).
| Time | Temp. | Humidity | Pressure | Rain* | Wind** | Luminosity | Snow |
|---|---|---|---|---|---|---|---|
| 1777888468 | 27.78° C | 30% | 1016.1 hPa | - | - | - | - |
| 1777884870 | 25.56° C | 36% | 1016.8 hPa | - | - | - | - |
| 1777881269 | 22.22° C | 42% | 1016.8 hPa | - | - | - | - |
| 1777877669 | 18.89° C | 47% | 1016.8 hPa | - | - | - | - |
| 1777874069 | 15.56° C | 52% | 1016.6 hPa | - | - | - | - |
| 1777870469 | 13.33° C | 54% | 1016.2 hPa | - | - | - | - |
| 1777866868 | 12.22° C | 52% | 1016.1 hPa | - | - | - | - |
| 1777863268 | 12.78° C | 48% | 1016.1 hPa | - | - | - | - |
| 1777859668 | 14.44° C | 44% | 1016.2 hPa | - | - | - | - |
| 1777856067 | 15.56° C | 42% | 1015.8 hPa | - | - | - | - |
| 1777852467 | 16.67° C | 40% | 1015.8 hPa | - | - | - | - |
| 1777848867 | 16.67° C | 41% | 1016.2 hPa | - | - | - | - |
| 1777845266 | 16.11° C | 40% | 1016.5 hPa | - | - | - | - |
| 1777841666 | 17.22° C | 39% | 1016.8 hPa | - | - | - | - |
| 1777838066 | 17.78° C | 36% | 1017 hPa | - | - | - | - |
| 1777834466 | 19.44° C | 33% | 1017 hPa | - | - | - | - |
| 1777830866 | 21.11° C | 29% | 1016.4 hPa | - | - | - | - |
| 1777827266 | 23.33° C | 28% | 1016.2 hPa | - | - | - | - |
| 1777823665 | 24.44° C | 26% | 1016.2 hPa | - | - | - | - |
| 1777820066 | 26.11° C | 25% | 1016.7 hPa | - | - | - | - |
| 1777816466 | 28.33° C | 24% | 1017.1 hPa | - | - | - | - |
| 1777812865 | 28.33° C | 25% | 1018 hPa | - | - | - | - |
| 1777809265 | 28.89° C | 26% | 1018.4 hPa | - | - | - | - |
| 1777805665 | 27.22° C | 30% | 1019.1 hPa | - | - | - | - |
| 1777802064 | 24.44° C | 36% | 1019.7 hPa | - | - | - | - |
* Rain since midnight (hover to see other rain measurements)
** Current wind speed in m/s (hover to see current wind gust speed)